createdAt,value
2019-04-19T00:01:27.349Z,10.75
2019-04-19T00:04:05.035Z,10.82
2019-04-19T00:07:00.555Z,10.87
2019-04-19T00:09:37.126Z,10.88
2019-04-19T00:12:17.211Z,10.78
2019-04-19T00:14:31.781Z,10.75
2019-04-19T00:17:06.268Z,10.78
2019-04-19T00:19:56.465Z,10.81
2019-04-19T00:22:28.234Z,10.64
2019-04-19T00:24:43.762Z,10.76
2019-04-19T00:27:15.932Z,10.62
2019-04-19T00:29:54.351Z,10.41
2019-04-19T00:32:34.972Z,10.35
2019-04-19T00:34:54.672Z,10.15
2019-04-19T00:37:26.941Z,10.01
2019-04-19T00:40:21.513Z,9.95
2019-04-19T00:42:57.196Z,9.78
2019-04-19T00:46:00.699Z,9.87
2019-04-19T00:48:34.773Z,10.16
2019-04-19T00:51:04.097Z,10.11
2019-04-19T00:53:32.936Z,10.06
2019-04-19T00:56:04.527Z,9.91
2019-04-19T00:58:33.225Z,9.75
2019-04-19T01:01:10.173Z,9.69
2019-04-19T01:03:43.651Z,9.73
2019-04-19T01:06:15.031Z,9.86
2019-04-19T01:08:55.137Z,9.63
2019-04-19T01:11:27.659Z,9.72
2019-04-19T01:14:09.188Z,9.66
2019-04-19T01:16:32.381Z,9.60
2019-04-19T01:19:04.841Z,9.52
2019-04-19T01:21:32.255Z,9.45
2019-04-19T01:24:06.163Z,9.26
2019-04-19T01:26:43.668Z,9.37
2019-04-19T01:29:14.335Z,9.27
2019-04-19T01:31:49.526Z,9.17
2019-04-19T01:34:24.899Z,9.17
2019-04-19T01:36:53.195Z,9.17
2019-04-19T01:39:36.525Z,9.11
2019-04-19T01:42:10.008Z,9.11
2019-04-19T01:45:08.390Z,8.95
2019-04-19T01:48:07.545Z,9.01
2019-04-19T01:51:00.030Z,8.97
2019-04-19T01:53:29.513Z,8.88
2019-04-19T01:55:46.509Z,8.79
2019-04-19T01:58:20.644Z,8.84
2019-04-19T02:00:55.473Z,8.86
2019-04-19T02:03:33.370Z,9.06
2019-04-19T02:06:06.024Z,9.04
2019-04-19T02:08:33.379Z,8.99
2019-04-19T02:11:49.466Z,8.83
2019-04-19T02:14:20.811Z,9.00
2019-04-19T02:16:52.465Z,9.12
2019-04-19T02:19:25.053Z,8.98
2019-04-19T02:21:55.619Z,8.75
2019-04-19T02:24:30.599Z,8.81
2019-04-19T02:27:04.806Z,8.81
2019-04-19T02:29:35.474Z,8.80
2019-04-19T02:35:06.409Z,9.01
2019-04-19T02:37:39.566Z,8.91
2019-04-19T02:40:21.713Z,8.89
2019-04-19T02:42:47.369Z,8.97
2019-04-19T02:45:21.339Z,8.97
2019-04-19T02:48:10.974Z,8.82
2019-04-19T02:53:16.165Z,8.77
2019-04-19T02:55:26.663Z,8.57
2019-04-19T02:58:23.644Z,8.57
2019-04-19T03:01:19.208Z,8.45
2019-04-19T03:03:34.260Z,8.31
2019-04-19T03:06:06.134Z,8.37
2019-04-19T03:08:21.096Z,8.54
2019-04-19T03:11:01.159Z,8.47
2019-04-19T03:13:44.191Z,8.43
2019-04-19T03:16:22.300Z,8.41
2019-04-19T03:18:45.111Z,8.31
2019-04-19T03:21:25.275Z,8.25
2019-04-19T03:23:56.616Z,8.14
2019-04-19T03:26:33.637Z,8.17
2019-04-19T03:28:53.082Z,8.19
2019-04-19T03:31:53.702Z,8.10
2019-04-19T03:34:20.578Z,8.03
2019-04-19T03:36:45.021Z,8.05
2019-04-19T03:39:23.421Z,8.01
2019-04-19T03:42:21.580Z,7.93
2019-04-19T03:45:00.469Z,7.91
2019-04-19T03:47:30.850Z,8.00
2019-04-19T03:50:04.478Z,8.02
2019-04-19T03:52:39.732Z,7.96
2019-04-19T03:55:09.611Z,7.92
2019-04-19T03:57:37.407Z,7.90
2019-04-19T03:59:58.266Z,7.81
2019-04-19T04:02:35.364Z,7.93
2019-04-19T04:05:09.096Z,8.07
2019-04-19T04:07:37.194Z,7.99
2019-04-19T04:10:27.581Z,8.01
2019-04-19T04:13:16.882Z,7.95
2019-04-19T04:16:09.850Z,7.87
2019-04-19T04:18:28.199Z,7.91
2019-04-19T04:21:01.211Z,7.91
2019-04-19T04:23:42.176Z,7.91
2019-04-19T04:26:14.414Z,7.96
2019-04-19T04:28:53.027Z,8.13
2019-04-19T04:31:22.760Z,8.05
2019-04-19T04:33:58.108Z,8.04
2019-04-19T04:36:40.796Z,8.05
2019-04-19T04:38:54.798Z,8.07
2019-04-19T04:41:29.315Z,8.08
2019-04-19T04:44:20.226Z,8.13
2019-04-19T04:47:20.513Z,8.15
2019-04-19T04:50:36.946Z,8.17
2019-04-19T04:52:52.300Z,8.21
2019-04-19T04:55:30.894Z,8.28
2019-04-19T04:58:05.489Z,8.41
2019-04-19T05:00:45.247Z,8.39
2019-04-19T05:03:23.201Z,8.42
2019-04-19T05:06:02.912Z,8.46
2019-04-19T05:08:37.440Z,8.62
2019-04-19T05:11:12.798Z,8.76
2019-04-19T05:13:47.253Z,8.84
2019-04-19T05:16:25.047Z,8.95
2019-04-19T05:18:48.402Z,9.05
2019-04-19T05:21:22.111Z,9.14
2019-04-19T05:23:59.585Z,9.24
2019-04-19T05:26:38.963Z,9.24
2019-04-19T05:29:00.652Z,9.24
2019-04-19T05:31:28.924Z,9.33
2019-04-19T05:34:13.677Z,9.38
2019-04-19T05:36:45.038Z,9.44
2019-04-19T05:39:25.366Z,9.49
2019-04-19T05:42:03.748Z,9.51
2019-04-19T05:44:47.504Z,9.58
2019-04-19T05:47:19.537Z,9.65
2019-04-19T05:49:52.125Z,9.74
2019-04-19T05:52:25.510Z,9.81
2019-04-19T05:54:40.814Z,9.90
2019-04-19T05:57:33.134Z,9.96
2019-04-19T05:59:54.831Z,10.09
2019-04-19T06:02:28.334Z,10.12
2019-04-19T06:05:16.461Z,10.22
2019-04-19T06:07:39.182Z,10.27
2019-04-19T06:09:58.504Z,10.34
2019-04-19T06:12:33.246Z,10.39
2019-04-19T06:15:21.780Z,10.45
2019-04-19T06:18:00.463Z,10.58
2019-04-19T06:20:33.992Z,10.68
2019-04-19T06:23:09.227Z,10.75
2019-04-19T06:25:52.778Z,10.85
2019-04-19T06:28:34.663Z,11.07
2019-04-19T06:30:51.464Z,11.15
2019-04-19T06:33:30.450Z,11.22
2019-04-19T06:35:46.551Z,11.27
2019-04-19T06:38:11.962Z,11.36
2019-04-19T06:40:54.441Z,11.43
2019-04-19T06:43:33.544Z,11.50
2019-04-19T06:46:05.723Z,11.58
2019-04-19T06:48:29.579Z,11.68
2019-04-19T06:51:02.462Z,11.88
2019-04-19T06:53:40.208Z,12.05
2019-04-19T06:56:10.905Z,12.18
2019-04-19T06:58:44.531Z,12.30
2019-04-19T07:01:22.781Z,12.38
2019-04-19T07:03:44.904Z,12.45
2019-04-19T07:06:32.247Z,12.57
2019-04-19T07:09:26.564Z,12.62
2019-04-19T07:11:46.372Z,12.67
2019-04-19T07:14:05.508Z,12.79
2019-04-19T07:16:49.793Z,12.87
2019-04-19T07:19:27.610Z,12.96
2019-04-19T07:21:55.218Z,13.10
2019-04-19T07:27:03.182Z,13.30
2019-04-19T07:29:19.619Z,13.42
2019-04-19T07:31:51.285Z,13.74
2019-04-19T07:34:37.781Z,13.83
2019-04-19T07:37:13.049Z,13.87
2019-04-19T07:39:55.680Z,13.95
2019-04-19T07:42:22.690Z,14.05
2019-04-19T07:44:51.253Z,14.21
2019-04-19T07:47:45.421Z,14.36
2019-04-19T07:50:17.297Z,14.42
2019-04-19T07:52:50.520Z,14.45
2019-04-19T07:55:17.315Z,14.54
2019-04-19T07:58:24.786Z,14.81
2019-04-19T08:00:53.921Z,14.92
2019-04-19T08:05:55.020Z,15.01
2019-04-19T08:08:42.210Z,15.04
2019-04-19T08:11:07.074Z,15.17
2019-04-19T08:13:41.136Z,15.43
2019-04-19T08:29:12.945Z,16.30
2019-04-19T08:31:32.845Z,16.43
2019-04-19T08:34:13.479Z,16.39
2019-04-19T08:36:44.821Z,16.53
2019-04-19T08:39:35.643Z,16.81
2019-04-19T08:42:10.655Z,16.73
2019-04-19T08:44:37.680Z,16.85
2019-04-19T08:47:27.867Z,16.95
2019-04-19T08:50:22.710Z,16.92
2019-04-19T08:53:01.779Z,16.82
2019-04-19T08:55:46.345Z,17.13
2019-04-19T08:58:08.537Z,17.26
2019-04-19T09:01:03.552Z,17.25
2019-04-19T09:03:36.740Z,17.30
2019-04-19T09:06:33.843Z,17.32
2019-04-19T09:08:34.718Z,17.54
2019-04-19T09:11:15.125Z,17.89
2019-04-19T09:13:52.239Z,17.85
2019-04-19T09:16:20.970Z,17.92
2019-04-19T09:18:57.057Z,17.92
2019-04-19T09:21:21.835Z,17.91
2019-04-19T09:23:48.408Z,18.15
2019-04-19T09:26:36.641Z,18.14
2019-04-19T09:29:21.044Z,18.29
2019-04-19T09:31:38.274Z,18.45
2019-04-19T09:34:03.784Z,18.41
2019-04-19T09:36:39.671Z,18.41
2019-04-19T09:39:24.957Z,18.62
2019-04-19T09:41:54.720Z,18.51
2019-04-19T09:44:27.996Z,18.72
2019-04-19T09:46:54.973Z,18.81
2019-04-19T09:49:46.281Z,18.74
2019-04-19T09:52:30.353Z,18.92
2019-04-19T09:54:58.594Z,18.78
2019-04-19T09:57:27.919Z,18.91
2019-04-19T09:59:43.001Z,19.17
2019-04-19T10:02:24.338Z,19.47
2019-04-19T10:04:49.085Z,19.48
2019-04-19T10:07:23.049Z,19.45
2019-04-19T10:10:02.808Z,19.31
2019-04-19T10:12:29.231Z,19.32
2019-04-19T10:15:02.124Z,19.39
2019-04-19T10:17:36.383Z,19.43
2019-04-19T10:20:08.863Z,19.59
2019-04-19T10:22:43.222Z,19.60
2019-04-19T10:25:14.939Z,19.60
2019-04-19T10:27:49.486Z,19.57
2019-04-19T10:30:50.528Z,19.62
2019-04-19T10:33:33.484Z,19.73
2019-04-19T10:35:58.704Z,19.64
2019-04-19T10:38:30.002Z,19.51
2019-04-19T10:41:01.792Z,19.72
2019-04-19T10:43:33.221Z,19.80
2019-04-19T10:46:06.974Z,19.95
2019-04-19T10:48:39.037Z,19.93
2019-04-19T10:51:19.621Z,19.85
2019-04-19T10:53:52.611Z,19.90
2019-04-19T10:56:41.465Z,20.11
2019-04-19T10:59:14.209Z,20.03
2019-04-19T11:01:49.742Z,19.99
2019-04-19T11:04:24.404Z,19.91
2019-04-19T11:06:57.759Z,20.11
2019-04-19T11:09:28.968Z,20.14
2019-04-19T11:12:01.646Z,20.19
2019-04-19T11:14:34.338Z,20.12
2019-04-19T11:17:07.968Z,20.27
2019-04-19T11:19:56.511Z,20.10
2019-04-19T11:22:13.977Z,20.01
2019-04-19T11:24:45.773Z,20.05
2019-04-19T11:27:17.384Z,20.20
2019-04-19T11:29:50.820Z,20.31
2019-04-19T11:32:37.998Z,20.37
2019-04-19T11:35:13.724Z,20.28
2019-04-19T11:37:50.946Z,20.41
2019-04-19T11:40:21.524Z,20.33
2019-04-19T11:42:55.319Z,20.46
2019-04-19T11:45:28.257Z,20.51
2019-04-19T11:48:00.947Z,20.52
2019-04-19T11:50:35.773Z,20.60
2019-04-19T11:53:12.081Z,20.54
2019-04-19T11:55:46.639Z,20.53
2019-04-19T11:58:20.209Z,20.65
2019-04-19T12:01:12.171Z,20.80
2019-04-19T12:03:44.356Z,20.79
2019-04-19T12:06:16.324Z,21.00
2019-04-19T12:08:49.609Z,20.80
2019-04-19T12:11:30.560Z,20.70
2019-04-19T12:14:03.870Z,20.70
2019-04-19T12:16:35.150Z,20.71
2019-04-19T12:19:07.398Z,20.77
2019-04-19T12:21:43.063Z,20.80
2019-04-19T12:24:15.003Z,20.77
2019-04-19T12:26:47.567Z,20.71
2019-04-19T12:29:32.236Z,20.74
2019-04-19T12:31:54.242Z,20.83
2019-04-19T12:34:28.781Z,20.88
2019-04-19T12:37:01.464Z,20.89
2019-04-19T12:39:34.719Z,20.91
2019-04-19T12:42:06.387Z,20.81
2019-04-19T12:44:40.504Z,20.76
2019-04-19T12:47:13.088Z,20.66
2019-04-19T12:49:53.568Z,20.60
2019-04-19T12:52:19.888Z,20.78
2019-04-19T12:54:52.051Z,20.97
2019-04-19T12:57:29.897Z,20.96
2019-04-19T13:00:02.349Z,21.13
2019-04-19T13:02:45.041Z,21.20
2019-04-19T13:05:20.353Z,21.13
2019-04-19T13:07:53.392Z,21.05
2019-04-19T13:10:25.384Z,21.01
2019-04-19T13:12:58.115Z,21.00
2019-04-19T13:15:30.166Z,21.01
2019-04-19T13:18:02.290Z,21.02
2019-04-19T13:20:36.826Z,20.98
2019-04-19T13:23:08.376Z,20.86
2019-04-19T13:25:41.609Z,20.88
2019-04-19T13:28:13.664Z,21.18
2019-04-19T13:30:52.105Z,21.25
2019-04-19T13:33:20.674Z,21.39
2019-04-19T13:35:53.136Z,21.35
2019-04-19T13:38:30.844Z,21.19
2019-04-19T13:41:22.897Z,21.21
2019-04-19T13:43:54.179Z,21.29
2019-04-19T13:46:26.597Z,21.38
2019-04-19T13:48:58.871Z,21.39
2019-04-19T13:51:30.776Z,21.28
2019-04-19T13:54:02.871Z,21.21
2019-04-19T13:56:34.783Z,21.27
2019-04-19T13:59:06.040Z,21.48
2019-04-19T14:01:38.704Z,21.49
2019-04-19T14:04:11.439Z,21.50
2019-04-19T14:06:44.587Z,21.48
2019-04-19T14:09:21.071Z,21.62
2019-04-19T14:11:53.378Z,21.55
2019-04-19T14:14:25.702Z,21.39
2019-04-19T14:16:57.801Z,21.33
2019-04-19T14:19:31.077Z,21.32
2019-04-19T14:22:02.749Z,21.25
2019-04-19T14:24:35.583Z,21.45
2019-04-19T14:27:06.915Z,21.51
2019-04-19T14:29:39.432Z,21.59
2019-04-19T14:32:11.577Z,21.62
2019-04-19T14:34:43.722Z,21.56
2019-04-19T14:37:16.975Z,21.66
2019-04-19T14:39:48.776Z,21.68
2019-04-19T14:42:19.967Z,21.61
2019-04-19T14:44:51.910Z,21.62
2019-04-19T14:47:23.824Z,21.69
2019-04-19T14:49:55.108Z,21.71
2019-04-19T14:52:28.054Z,21.49
2019-04-19T14:55:01.298Z,21.44
2019-04-19T14:57:32.623Z,21.61
2019-04-19T15:00:05.147Z,21.69
2019-04-19T15:02:45.022Z,21.64
2019-04-19T15:05:31.890Z,21.58
2019-04-19T15:08:04.341Z,21.40
2019-04-19T15:10:37.726Z,21.63
2019-04-19T15:13:10.358Z,21.77
2019-04-19T15:15:41.785Z,21.74
2019-04-19T15:18:13.593Z,21.66
2019-04-19T15:20:55.739Z,21.56
2019-04-19T15:23:20.518Z,21.50
2019-04-19T15:25:52.885Z,21.60
2019-04-19T15:28:26.893Z,21.58
2019-04-19T15:30:58.430Z,21.49
2019-04-19T15:33:30.448Z,21.41
2019-04-19T15:36:03.501Z,21.45
2019-04-19T15:38:36.006Z,21.51
2019-04-19T15:41:08.201Z,21.65
2019-04-19T15:43:40.402Z,21.63
2019-04-19T15:46:11.838Z,21.59
2019-04-19T15:48:47.704Z,21.60
2019-04-19T15:51:25.853Z,21.77
2019-04-19T15:53:52.044Z,21.54
2019-04-19T15:56:24.437Z,21.62
2019-04-19T15:58:56.688Z,21.51
2019-04-19T16:01:48.147Z,21.44
2019-04-19T16:04:44.146Z,21.45
2019-04-19T16:07:17.424Z,21.59
2019-04-19T16:10:02.007Z,21.55
2019-04-19T16:12:37.810Z,21.39
2019-04-19T16:15:11.752Z,21.26
2019-04-19T16:17:44.075Z,21.44
2019-04-19T16:20:17.593Z,21.45
2019-04-19T16:22:49.960Z,21.27
2019-04-19T16:25:21.317Z,21.10
2019-04-19T16:27:53.585Z,21.05
2019-04-19T16:30:26.350Z,21.03
2019-04-19T16:33:01.646Z,20.95
2019-04-19T16:35:40.412Z,21.10
2019-04-19T16:38:13.981Z,21.38
2019-04-19T16:40:52.590Z,21.38
2019-04-19T16:43:35.511Z,21.18
2019-04-19T16:46:18.525Z,21.19
2019-04-19T16:48:44.912Z,21.15
2019-04-19T16:51:18.944Z,21.04
2019-04-19T16:53:50.351Z,20.77
2019-04-19T16:56:21.807Z,20.78
2019-04-19T16:58:53.210Z,20.73
2019-04-19T17:01:25.539Z,21.04
2019-04-19T17:04:00.168Z,20.86
2019-04-19T17:06:33.916Z,20.89
2019-04-19T17:09:11.052Z,20.80
2019-04-19T17:11:49.426Z,21.03
2019-04-19T17:14:23.091Z,21.27
2019-04-19T17:17:06.978Z,21.05
2019-04-19T17:20:10.904Z,21.05
2019-04-19T17:22:43.272Z,21.18
2019-04-19T17:25:16.992Z,21.15
2019-04-19T17:28:01.408Z,20.86
2019-04-19T17:30:38.018Z,20.66
2019-04-19T17:33:10.783Z,20.55
2019-04-19T17:35:44.068Z,20.43
2019-04-19T17:38:27.119Z,20.10
2019-04-19T17:41:41.050Z,19.98
2019-04-19T17:48:53.275Z,19.48
2019-04-19T17:52:08.160Z,19.36
2019-04-19T17:54:16.143Z,19.20
2019-04-19T17:56:49.130Z,19.38
2019-04-19T18:02:48.955Z,19.07
2019-04-19T18:05:24.307Z,18.75
2019-04-19T18:08:36.614Z,18.52
2019-04-19T18:16:24.826Z,18.25
2019-04-19T18:20:57.307Z,17.90
2019-04-19T18:22:14.903Z,17.85
2019-04-19T18:24:50.038Z,17.61
2019-04-19T18:27:28.367Z,17.54
2019-04-19T18:29:57.926Z,17.39
2019-04-19T18:32:56.440Z,17.28
2019-04-19T18:35:35.159Z,17.18
2019-04-19T18:38:15.623Z,17.14
2019-04-19T18:40:41.399Z,17.05
2019-04-19T18:43:25.653Z,17.00
2019-04-19T18:45:47.885Z,16.98
2019-04-19T18:48:23.798Z,16.87
2019-04-19T18:50:58.276Z,16.72
2019-04-19T18:53:59.732Z,16.76
2019-04-19T18:56:26.572Z,16.67
2019-04-19T18:59:07.884Z,16.53
2019-04-19T19:01:39.434Z,16.48
2019-04-19T19:04:17.759Z,16.49
2019-04-19T19:06:54.654Z,16.40
2019-04-19T19:09:48.468Z,16.27
2019-04-19T19:12:16.824Z,16.13
2019-04-19T19:14:55.672Z,15.95
2019-04-19T19:17:26.807Z,15.83
2019-04-19T19:47:42.809Z,15.23
2019-04-19T19:50:26.104Z,15.23
2019-04-19T19:53:06.141Z,15.29
2019-04-19T19:55:30.153Z,15.52
2019-04-19T19:57:58.480Z,15.28
2019-04-19T20:00:34.893Z,15.11
2019-04-19T20:03:11.525Z,15.11
2019-04-19T20:05:36.845Z,14.98
2019-04-19T20:08:08.286Z,15.06
2019-04-19T20:10:44.054Z,15.09
2019-04-19T20:13:19.428Z,15.14
2019-04-19T20:15:51.019Z,15.07
2019-04-19T20:18:30.879Z,14.95
2019-04-19T20:21:00.796Z,14.89
2019-04-19T20:23:42.755Z,14.84
2019-04-19T20:26:17.194Z,14.77
2019-04-19T20:28:41.263Z,14.70
2019-04-19T20:31:16.763Z,14.63
2019-04-19T20:33:51.944Z,14.65
2019-04-19T20:36:19.104Z,14.50
2019-04-19T20:38:57.996Z,14.53
2019-04-19T20:41:29.652Z,14.37
2019-04-19T20:44:12.575Z,14.16
2019-04-19T20:46:33.379Z,14.02
2019-04-19T20:49:08.281Z,13.87
2019-04-19T20:51:53.711Z,13.77
2019-04-19T20:54:41.194Z,13.67
2019-04-19T20:57:21.461Z,13.61
2019-04-19T20:59:43.716Z,13.56
2019-04-19T21:02:18.815Z,13.50
2019-04-19T21:04:52.636Z,13.48
2019-04-19T21:07:20.489Z,13.39
2019-04-19T21:09:51.686Z,13.32
2019-04-19T21:12:27.649Z,13.15
2019-04-19T21:15:08.358Z,12.89
2019-04-19T21:17:33.881Z,13.43
2019-04-19T21:20:04.750Z,13.36
2019-04-19T21:22:38.611Z,13.21
2019-04-19T21:25:19.082Z,13.02
2019-04-19T21:27:49.300Z,12.66
2019-04-19T21:30:18.797Z,12.69
2019-04-19T21:32:55.553Z,12.98
2019-04-19T21:35:25.114Z,13.22
2019-04-19T21:37:57.944Z,13.29
2019-04-19T21:40:34.936Z,13.30
2019-04-19T21:43:07.177Z,13.34
2019-04-19T21:45:41.768Z,13.17
2019-04-19T21:48:10.969Z,13.15
2019-04-19T21:50:47.527Z,13.13
2019-04-19T21:53:18.731Z,12.94
2019-04-19T21:56:01.087Z,12.88
2019-04-19T21:58:25.004Z,12.70
2019-04-19T22:01:07.876Z,12.68
2019-04-19T22:03:36.639Z,12.70
2019-04-19T22:06:16.451Z,12.90
2019-04-19T22:08:43.941Z,12.93
2019-04-19T22:11:16.338Z,12.90
2019-04-19T22:13:51.827Z,12.84
2019-04-19T22:16:31.675Z,13.01
2019-04-19T22:18:56.225Z,12.90
2019-04-19T22:21:35.319Z,12.75
2019-04-19T22:24:02.497Z,12.80
2019-04-19T22:26:40.122Z,12.53
2019-04-19T22:29:07.423Z,12.36
2019-04-19T22:31:39.565Z,12.38
2019-04-19T22:34:12.688Z,12.53
2019-04-19T22:36:48.560Z,12.47
2019-04-19T22:39:17.580Z,12.52
2019-04-19T22:41:50.634Z,12.40
2019-04-19T22:44:23.002Z,12.49
2019-04-19T22:46:56.629Z,12.45
2019-04-19T22:49:34.087Z,12.23
2019-04-19T22:52:02.708Z,12.26
2019-04-19T22:54:34.931Z,12.16
2019-04-19T22:57:14.785Z,12.16
2019-04-19T22:59:49.458Z,12.02
2019-04-19T23:02:37.325Z,11.88
2019-04-19T23:05:10.790Z,11.53
2019-04-19T23:07:48.717Z,11.84
2019-04-19T23:10:16.464Z,11.65
2019-04-19T23:12:49.378Z,11.53
2019-04-19T23:15:26.368Z,11.51
2019-04-19T23:17:54.907Z,11.54
2019-04-19T23:20:30.541Z,11.56
2019-04-19T23:23:00.887Z,11.53
2019-04-19T23:25:38.092Z,11.41
2019-04-19T23:28:15.233Z,11.33
2019-04-19T23:30:41.137Z,11.44
2019-04-19T23:33:18.125Z,11.42
2019-04-19T23:35:46.574Z,11.38
2019-04-19T23:38:23.541Z,11.31
2019-04-19T23:40:53.123Z,11.21
2019-04-19T23:43:33.580Z,11.04
2019-04-19T23:45:58.604Z,10.84
2019-04-19T23:48:33.342Z,10.81
2019-04-19T23:51:04.313Z,10.78
2019-04-19T23:53:40.608Z,10.57
2019-04-19T23:56:20.092Z,10.59
2019-04-19T23:58:44.221Z,10.35
